sensor_id;sensor_type;location;lat;lon;timestamp;P1;durP1;ratioP1;P2;durP2;ratioP2
24485;SDS011;13449;49.374;8.584;2022-07-23T00:00:31;8.30;;;5.55;;
24485;SDS011;13449;49.374;8.584;2022-07-23T00:03:04;8.63;;;4.80;;
24485;SDS011;13449;49.374;8.584;2022-07-23T00:05:30;11.00;;;5.55;;
24485;SDS011;13449;49.374;8.584;2022-07-23T00:08:00;8.73;;;5.35;;
24485;SDS011;13449;49.374;8.584;2022-07-23T00:10:27;8.63;;;6.03;;
24485;SDS011;13449;49.374;8.584;2022-07-23T00:12:53;4.85;;;3.60;;
24485;SDS011;13449;49.374;8.584;2022-07-23T00:15:20;11.43;;;6.05;;
24485;SDS011;13449;49.374;8.584;2022-07-23T00:17:46;10.60;;;5.78;;
24485;SDS011;13449;49.374;8.584;2022-07-23T00:20:13;12.23;;;4.53;;
24485;SDS011;13449;49.374;8.584;2022-07-23T00:22:49;7.72;;;5.55;;
24485;SDS011;13449;49.374;8.584;2022-07-23T00:25:17;6.00;;;4.55;;
24485;SDS011;13449;49.374;8.584;2022-07-23T00:27:54;11.50;;;5.05;;
24485;SDS011;13449;49.374;8.584;2022-07-23T00:30:23;5.65;;;4.85;;
24485;SDS011;13449;49.374;8.584;2022-07-23T00:32:51;9.02;;;5.63;;
24485;SDS011;13449;49.374;8.584;2022-07-23T00:35:22;7.85;;;5.28;;
24485;SDS011;13449;49.374;8.584;2022-07-23T00:37:53;10.38;;;5.10;;
24485;SDS011;13449;49.374;8.584;2022-07-23T00:40:24;10.00;;;5.43;;
24485;SDS011;13449;49.374;8.584;2022-07-23T00:42:51;7.82;;;5.18;;
24485;SDS011;13449;49.374;8.584;2022-07-23T00:45:20;11.27;;;5.63;;
24485;SDS011;13449;49.374;8.584;2022-07-23T00:50:16;8.63;;;5.30;;
24485;SDS011;13449;49.374;8.584;2022-07-23T00:52:45;9.65;;;5.78;;
24485;SDS011;13449;49.374;8.584;2022-07-23T00:55:12;5.05;;;4.55;;
24485;SDS011;13449;49.374;8.584;2022-07-23T00:57:40;10.90;;;5.35;;
24485;SDS011;13449;49.374;8.584;2022-07-23T01:00:08;7.03;;;4.80;;
24485;SDS011;13449;49.374;8.584;2022-07-23T01:02:39;10.25;;;5.18;;
24485;SDS011;13449;49.374;8.584;2022-07-23T01:05:09;6.07;;;4.70;;
24485;SDS011;13449;49.374;8.584;2022-07-23T01:07:38;6.90;;;4.78;;
24485;SDS011;13449;49.374;8.584;2022-07-23T01:10:05;7.13;;;4.95;;
24485;SDS011;13449;49.374;8.584;2022-07-23T01:12:52;9.85;;;5.38;;
24485;SDS011;13449;49.374;8.584;2022-07-23T01:15:18;6.40;;;4.50;;
24485;SDS011;13449;49.374;8.584;2022-07-23T01:17:47;7.13;;;4.50;;
24485;SDS011;13449;49.374;8.584;2022-07-23T01:20:14;7.00;;;4.72;;
24485;SDS011;13449;49.374;8.584;2022-07-23T01:22:42;8.57;;;5.05;;
24485;SDS011;13449;49.374;8.584;2022-07-23T01:25:09;9.02;;;4.95;;
24485;SDS011;13449;49.374;8.584;2022-07-23T01:27:36;5.95;;;4.32;;
24485;SDS011;13449;49.374;8.584;2022-07-23T01:30:03;5.22;;;4.20;;
24485;SDS011;13449;49.374;8.584;2022-07-23T01:32:33;9.88;;;5.20;;
24485;SDS011;13449;49.374;8.584;2022-07-23T01:34:59;4.82;;;3.63;;
24485;SDS011;13449;49.374;8.584;2022-07-23T01:37:26;7.07;;;5.03;;
24485;SDS011;13449;49.374;8.584;2022-07-23T01:39:55;7.38;;;4.22;;
24485;SDS011;13449;49.374;8.584;2022-07-23T01:42:22;7.05;;;4.80;;
24485;SDS011;13449;49.374;8.584;2022-07-23T01:44:49;7.68;;;5.07;;
24485;SDS011;13449;49.374;8.584;2022-07-23T01:47:18;7.43;;;4.55;;
24485;SDS011;13449;49.374;8.584;2022-07-23T01:52:14;12.65;;;4.90;;
24485;SDS011;13449;49.374;8.584;2022-07-23T01:54:40;6.72;;;4.95;;
24485;SDS011;13449;49.374;8.584;2022-07-23T01:57:07;5.78;;;4.35;;
24485;SDS011;13449;49.374;8.584;2022-07-23T01:59:34;6.15;;;4.40;;
24485;SDS011;13449;49.374;8.584;2022-07-23T02:02:01;8.35;;;4.90;;
24485;SDS011;13449;49.374;8.584;2022-07-23T02:04:29;5.68;;;4.47;;
24485;SDS011;13449;49.374;8.584;2022-07-23T02:06:56;9.15;;;4.57;;
24485;SDS011;13449;49.374;8.584;2022-07-23T02:09:24;7.20;;;3.80;;
24485;SDS011;13449;49.374;8.584;2022-07-23T02:11:50;9.35;;;3.58;;
24485;SDS011;13449;49.374;8.584;2022-07-23T02:14:17;9.90;;;4.18;;
24485;SDS011;13449;49.374;8.584;2022-07-23T02:16:43;5.45;;;3.70;;
24485;SDS011;13449;49.374;8.584;2022-07-23T02:19:10;12.02;;;4.22;;
24485;SDS011;13449;49.374;8.584;2022-07-23T02:21:36;5.93;;;3.95;;
24485;SDS011;13449;49.374;8.584;2022-07-23T02:24:05;4.63;;;3.95;;
24485;SDS011;13449;49.374;8.584;2022-07-23T02:26:34;4.30;;;3.95;;
24485;SDS011;13449;49.374;8.584;2022-07-23T02:29:02;5.43;;;4.18;;
24485;SDS011;13449;49.374;8.584;2022-07-23T02:31:31;7.65;;;3.63;;
24485;SDS011;13449;49.374;8.584;2022-07-23T02:33:57;6.68;;;4.32;;
24485;SDS011;13449;49.374;8.584;2022-07-23T02:36:24;5.60;;;3.92;;
24485;SDS011;13449;49.374;8.584;2022-07-23T02:41:23;8.80;;;4.35;;
24485;SDS011;13449;49.374;8.584;2022-07-23T02:43:50;6.72;;;4.68;;
24485;SDS011;13449;49.374;8.584;2022-07-23T02:46:16;4.25;;;3.58;;
24485;SDS011;13449;49.374;8.584;2022-07-23T02:48:43;4.03;;;3.63;;
24485;SDS011;13449;49.374;8.584;2022-07-23T02:51:10;7.60;;;4.10;;
24485;SDS011;13449;49.374;8.584;2022-07-23T02:53:40;6.82;;;4.35;;
24485;SDS011;13449;49.374;8.584;2022-07-23T02:56:07;4.55;;;3.50;;
24485;SDS011;13449;49.374;8.584;2022-07-23T02:58:34;10.00;;;4.55;;
24485;SDS011;13449;49.374;8.584;2022-07-23T03:01:01;9.95;;;3.67;;
24485;SDS011;13449;49.374;8.584;2022-07-23T03:03:30;7.47;;;4.07;;
24485;SDS011;13449;49.374;8.584;2022-07-23T03:05:59;5.05;;;4.10;;
24485;SDS011;13449;49.374;8.584;2022-07-23T03:08:25;5.40;;;3.72;;
24485;SDS011;13449;49.374;8.584;2022-07-23T03:10:54;5.43;;;3.97;;
24485;SDS011;13449;49.374;8.584;2022-07-23T03:13:21;3.30;;;2.92;;
24485;SDS011;13449;49.374;8.584;2022-07-23T03:15:47;4.85;;;4.22;;
24485;SDS011;13449;49.374;8.584;2022-07-23T03:18:14;6.07;;;3.47;;
24485;SDS011;13449;49.374;8.584;2022-07-23T03:20:43;11.32;;;3.42;;
24485;SDS011;13449;49.374;8.584;2022-07-23T03:23:09;4.80;;;3.83;;
24485;SDS011;13449;49.374;8.584;2022-07-23T03:25:36;6.65;;;3.47;;
24485;SDS011;13449;49.374;8.584;2022-07-23T03:28:02;4.57;;;3.50;;
24485;SDS011;13449;49.374;8.584;2022-07-23T03:30:29;7.50;;;3.75;;
24485;SDS011;13449;49.374;8.584;2022-07-23T03:32:55;10.15;;;4.18;;
24485;SDS011;13449;49.374;8.584;2022-07-23T03:35:22;5.63;;;4.40;;
24485;SDS011;13449;49.374;8.584;2022-07-23T03:37:50;5.95;;;4.10;;
24485;SDS011;13449;49.374;8.584;2022-07-23T03:40:17;7.20;;;3.72;;
24485;SDS011;13449;49.374;8.584;2022-07-23T03:42:43;6.95;;;4.10;;
24485;SDS011;13449;49.374;8.584;2022-07-23T03:45:11;5.38;;;4.32;;
24485;SDS011;13449;49.374;8.584;2022-07-23T03:47:38;4.40;;;3.80;;
24485;SDS011;13449;49.374;8.584;2022-07-23T03:50:05;5.07;;;4.25;;
24485;SDS011;13449;49.374;8.584;2022-07-23T03:52:32;6.65;;;4.60;;
24485;SDS011;13449;49.374;8.584;2022-07-23T03:54:58;5.70;;;4.38;;
24485;SDS011;13449;49.374;8.584;2022-07-23T03:57:25;9.15;;;4.50;;
24485;SDS011;13449;49.374;8.584;2022-07-23T03:59:51;4.28;;;3.88;;
24485;SDS011;13449;49.374;8.584;2022-07-23T04:02:18;11.98;;;4.07;;
24485;SDS011;13449;49.374;8.584;2022-07-23T04:04:44;5.47;;;4.22;;
24485;SDS011;13449;49.374;8.584;2022-07-23T04:07:11;5.22;;;3.67;;
24485;SDS011;13449;49.374;8.584;2022-07-23T04:09:37;5.68;;;3.90;;
24485;SDS011;13449;49.374;8.584;2022-07-23T04:12:11;5.45;;;4.10;;
24485;SDS011;13449;49.374;8.584;2022-07-23T04:14:41;3.90;;;3.50;;
24485;SDS011;13449;49.374;8.584;2022-07-23T04:17:07;6.38;;;4.55;;
24485;SDS011;13449;49.374;8.584;2022-07-23T04:19:36;7.97;;;4.68;;
24485;SDS011;13449;49.374;8.584;2022-07-23T04:22:06;7.60;;;4.70;;
24485;SDS011;13449;49.374;8.584;2022-07-23T04:24:34;9.23;;;4.68;;
24485;SDS011;13449;49.374;8.584;2022-07-23T04:27:00;5.63;;;5.07;;
24485;SDS011;13449;49.374;8.584;2022-07-23T04:29:27;5.75;;;4.65;;
24485;SDS011;13449;49.374;8.584;2022-07-23T04:31:53;7.80;;;4.75;;
24485;SDS011;13449;49.374;8.584;2022-07-23T04:34:20;12.82;;;4.75;;
24485;SDS011;13449;49.374;8.584;2022-07-23T04:36:47;5.45;;;4.93;;
24485;SDS011;13449;49.374;8.584;2022-07-23T04:39:13;6.57;;;4.78;;
24485;SDS011;13449;49.374;8.584;2022-07-23T04:41:42;4.30;;;3.72;;
24485;SDS011;13449;49.374;8.584;2022-07-23T04:44:11;10.95;;;5.07;;
24485;SDS011;13449;49.374;8.584;2022-07-23T04:46:40;13.98;;;5.25;;
24485;SDS011;13449;49.374;8.584;2022-07-23T04:49:06;11.63;;;4.40;;
24485;SDS011;13449;49.374;8.584;2022-07-23T04:51:33;6.85;;;4.80;;
24485;SDS011;13449;49.374;8.584;2022-07-23T04:54:00;8.05;;;5.28;;
24485;SDS011;13449;49.374;8.584;2022-07-23T04:56:33;7.35;;;5.07;;
24485;SDS011;13449;49.374;8.584;2022-07-23T04:59:02;10.65;;;5.75;;
24485;SDS011;13449;49.374;8.584;2022-07-23T05:01:32;9.35;;;6.25;;
24485;SDS011;13449;49.374;8.584;2022-07-23T05:03:58;9.20;;;5.40;;
24485;SDS011;13449;49.374;8.584;2022-07-23T05:06:25;12.25;;;5.70;;
24485;SDS011;13449;49.374;8.584;2022-07-23T05:08:51;7.47;;;5.05;;
24485;SDS011;13449;49.374;8.584;2022-07-23T05:11:18;8.85;;;5.72;;
24485;SDS011;13449;49.374;8.584;2022-07-23T05:13:51;7.10;;;5.72;;
24485;SDS011;13449;49.374;8.584;2022-07-23T05:16:18;9.50;;;5.18;;
24485;SDS011;13449;49.374;8.584;2022-07-23T05:18:44;9.93;;;4.55;;
24485;SDS011;13449;49.374;8.584;2022-07-23T05:21:13;7.63;;;5.75;;
24485;SDS011;13449;49.374;8.584;2022-07-23T05:23:40;11.73;;;5.38;;
24485;SDS011;13449;49.374;8.584;2022-07-23T05:26:06;7.47;;;5.18;;
24485;SDS011;13449;49.374;8.584;2022-07-23T05:28:36;7.50;;;5.72;;
24485;SDS011;13449;49.374;8.584;2022-07-23T05:31:02;8.05;;;5.90;;
24485;SDS011;13449;49.374;8.584;2022-07-23T05:33:32;12.10;;;6.78;;
24485;SDS011;13449;49.374;8.584;2022-07-23T05:36:02;13.20;;;6.60;;
24485;SDS011;13449;49.374;8.584;2022-07-23T05:38:29;10.38;;;6.20;;
24485;SDS011;13449;49.374;8.584;2022-07-23T05:40:57;7.75;;;5.55;;
24485;SDS011;13449;49.374;8.584;2022-07-23T05:43:24;8.80;;;5.85;;
24485;SDS011;13449;49.374;8.584;2022-07-23T05:45:51;9.57;;;6.95;;
24485;SDS011;13449;49.374;8.584;2022-07-23T05:48:17;14.10;;;7.38;;
24485;SDS011;13449;49.374;8.584;2022-07-23T05:50:44;12.43;;;8.52;;
24485;SDS011;13449;49.374;8.584;2022-07-23T05:53:11;8.30;;;5.85;;
24485;SDS011;13449;49.374;8.584;2022-07-23T05:55:40;12.20;;;6.70;;
24485;SDS011;13449;49.374;8.584;2022-07-23T05:58:06;17.30;;;8.35;;
24485;SDS011;13449;49.374;8.584;2022-07-23T06:00:32;11.48;;;7.38;;
24485;SDS011;13449;49.374;8.584;2022-07-23T06:02:59;12.90;;;7.13;;
24485;SDS011;13449;49.374;8.584;2022-07-23T06:05:26;11.85;;;7.28;;
24485;SDS011;13449;49.374;8.584;2022-07-23T06:07:52;8.02;;;6.15;;
24485;SDS011;13449;49.374;8.584;2022-07-23T06:10:19;10.02;;;7.15;;
24485;SDS011;13449;49.374;8.584;2022-07-23T06:12:48;9.43;;;6.93;;
24485;SDS011;13449;49.374;8.584;2022-07-23T06:15:14;11.35;;;7.63;;
24485;SDS011;13449;49.374;8.584;2022-07-23T06:17:43;14.73;;;7.55;;
24485;SDS011;13449;49.374;8.584;2022-07-23T06:20:12;9.55;;;7.38;;
24485;SDS011;13449;49.374;8.584;2022-07-23T06:22:38;10.63;;;7.10;;
24485;SDS011;13449;49.374;8.584;2022-07-23T06:25:05;12.02;;;7.18;;
24485;SDS011;13449;49.374;8.584;2022-07-23T06:27:46;13.25;;;7.65;;
24485;SDS011;13449;49.374;8.584;2022-07-23T06:30:14;7.82;;;6.65;;
24485;SDS011;13449;49.374;8.584;2022-07-23T06:32:43;12.45;;;7.15;;
24485;SDS011;13449;49.374;8.584;2022-07-23T06:35:10;10.73;;;7.28;;
24485;SDS011;13449;49.374;8.584;2022-07-23T06:37:37;13.80;;;7.50;;
24485;SDS011;13449;49.374;8.584;2022-07-23T06:40:03;15.98;;;7.88;;
24485;SDS011;13449;49.374;8.584;2022-07-23T06:42:33;14.90;;;7.30;;
24485;SDS011;13449;49.374;8.584;2022-07-23T06:45:03;14.63;;;8.57;;
24485;SDS011;13449;49.374;8.584;2022-07-23T06:47:30;13.35;;;8.15;;
24485;SDS011;13449;49.374;8.584;2022-07-23T06:49:57;12.30;;;7.68;;
24485;SDS011;13449;49.374;8.584;2022-07-23T06:52:23;11.45;;;6.55;;
24485;SDS011;13449;49.374;8.584;2022-07-23T06:54:50;17.75;;;7.28;;
24485;SDS011;13449;49.374;8.584;2022-07-23T06:57:20;10.88;;;7.03;;
24485;SDS011;13449;49.374;8.584;2022-07-23T06:59:46;11.65;;;6.72;;
24485;SDS011;13449;49.374;8.584;2022-07-23T07:02:20;9.43;;;6.22;;
24485;SDS011;13449;49.374;8.584;2022-07-23T07:04:47;10.57;;;7.65;;
24485;SDS011;13449;49.374;8.584;2022-07-23T07:07:16;12.00;;;7.25;;
24485;SDS011;13449;49.374;8.584;2022-07-23T07:09:43;13.15;;;8.32;;
24485;SDS011;13449;49.374;8.584;2022-07-23T07:12:11;11.23;;;7.80;;
24485;SDS011;13449;49.374;8.584;2022-07-23T07:14:38;11.73;;;7.72;;
24485;SDS011;13449;49.374;8.584;2022-07-23T07:17:07;10.57;;;6.78;;
24485;SDS011;13449;49.374;8.584;2022-07-23T07:19:33;8.68;;;6.45;;
24485;SDS011;13449;49.374;8.584;2022-07-23T07:22:00;8.68;;;6.18;;
24485;SDS011;13449;49.374;8.584;2022-07-23T07:24:30;9.45;;;6.57;;
24485;SDS011;13449;49.374;8.584;2022-07-23T07:27:02;8.43;;;6.28;;
24485;SDS011;13449;49.374;8.584;2022-07-23T07:29:30;12.43;;;6.78;;
24485;SDS011;13449;49.374;8.584;2022-07-23T07:31:57;9.70;;;6.35;;
24485;SDS011;13449;49.374;8.584;2022-07-23T07:34:23;14.55;;;7.35;;
24485;SDS011;13449;49.374;8.584;2022-07-23T07:36:52;9.95;;;7.15;;
24485;SDS011;13449;49.374;8.584;2022-07-23T07:39:18;12.15;;;7.50;;
24485;SDS011;13449;49.374;8.584;2022-07-23T07:41:45;6.97;;;5.47;;
24485;SDS011;13449;49.374;8.584;2022-07-23T07:44:12;12.43;;;6.60;;
24485;SDS011;13449;49.374;8.584;2022-07-23T07:46:38;10.50;;;7.30;;
24485;SDS011;13449;49.374;8.584;2022-07-23T07:49:05;10.73;;;6.97;;
24485;SDS011;13449;49.374;8.584;2022-07-23T07:51:32;8.85;;;6.47;;
24485;SDS011;13449;49.374;8.584;2022-07-23T07:53:59;13.10;;;7.18;;
24485;SDS011;13449;49.374;8.584;2022-07-23T07:56:27;10.13;;;6.47;;
24485;SDS011;13449;49.374;8.584;2022-07-23T07:58:53;9.15;;;6.47;;
24485;SDS011;13449;49.374;8.584;2022-07-23T08:01:20;8.95;;;6.55;;
24485;SDS011;13449;49.374;8.584;2022-07-23T08:03:46;7.38;;;6.05;;
24485;SDS011;13449;49.374;8.584;2022-07-23T08:06:13;10.25;;;5.82;;
24485;SDS011;13449;49.374;8.584;2022-07-23T08:08:42;10.00;;;6.95;;
24485;SDS011;13449;49.374;8.584;2022-07-23T08:11:09;11.43;;;7.25;;
24485;SDS011;13449;49.374;8.584;2022-07-23T08:13:35;10.23;;;6.18;;
24485;SDS011;13449;49.374;8.584;2022-07-23T08:16:02;8.23;;;5.88;;
24485;SDS011;13449;49.374;8.584;2022-07-23T08:18:33;9.88;;;5.78;;
24485;SDS011;13449;49.374;8.584;2022-07-23T08:21:00;10.77;;;7.05;;
24485;SDS011;13449;49.374;8.584;2022-07-23T08:23:26;9.07;;;6.47;;
24485;SDS011;13449;49.374;8.584;2022-07-23T08:25:55;10.63;;;5.90;;
24485;SDS011;13449;49.374;8.584;2022-07-23T08:28:25;7.38;;;5.68;;
24485;SDS011;13449;49.374;8.584;2022-07-23T08:30:54;11.10;;;6.45;;
24485;SDS011;13449;49.374;8.584;2022-07-23T08:33:21;11.93;;;6.28;;
24485;SDS011;13449;49.374;8.584;2022-07-23T08:35:59;8.98;;;6.05;;
24485;SDS011;13449;49.374;8.584;2022-07-23T08:38:30;12.85;;;6.47;;
24485;SDS011;13449;49.374;8.584;2022-07-23T08:40:57;10.95;;;7.03;;
24485;SDS011;13449;49.374;8.584;2022-07-23T08:43:25;8.98;;;6.05;;
24485;SDS011;13449;49.374;8.584;2022-07-23T08:45:56;7.72;;;5.65;;
24485;SDS011;13449;49.374;8.584;2022-07-23T08:48:27;7.90;;;5.55;;
24485;SDS011;13449;49.374;8.584;2022-07-23T08:50:58;7.70;;;6.05;;
24485;SDS011;13449;49.374;8.584;2022-07-23T08:53:27;9.98;;;6.88;;
24485;SDS011;13449;49.374;8.584;2022-07-23T08:55:55;22.67;;;6.72;;
24485;SDS011;13449;49.374;8.584;2022-07-23T08:58:33;10.40;;;6.55;;
24485;SDS011;13449;49.374;8.584;2022-07-23T09:01:02;9.65;;;6.07;;
24485;SDS011;13449;49.374;8.584;2022-07-23T09:03:30;8.05;;;5.93;;
24485;SDS011;13449;49.374;8.584;2022-07-23T09:05:58;8.20;;;5.95;;
24485;SDS011;13449;49.374;8.584;2022-07-23T09:08:40;17.77;;;7.30;;
24485;SDS011;13449;49.374;8.584;2022-07-23T09:11:12;9.23;;;6.37;;
24485;SDS011;13449;49.374;8.584;2022-07-23T09:13:46;10.88;;;6.70;;
24485;SDS011;13449;49.374;8.584;2022-07-23T09:16:15;10.15;;;6.88;;
24485;SDS011;13449;49.374;8.584;2022-07-23T09:18:46;9.55;;;6.53;;
24485;SDS011;13449;49.374;8.584;2022-07-23T09:24:08;8.98;;;6.00;;
24485;SDS011;13449;49.374;8.584;2022-07-23T09:26:41;11.60;;;6.15;;
24485;SDS011;13449;49.374;8.584;2022-07-23T09:29:23;8.95;;;6.00;;
24485;SDS011;13449;49.374;8.584;2022-07-23T09:36:52;6.25;;;5.32;;
24485;SDS011;13449;49.374;8.584;2022-07-23T09:39:30;7.68;;;6.03;;
24485;SDS011;13449;49.374;8.584;2022-07-23T09:42:20;6.85;;;5.00;;
24485;SDS011;13449;49.374;8.584;2022-07-23T09:44:47;8.77;;;6.28;;
24485;SDS011;13449;49.374;8.584;2022-07-23T09:47:15;9.45;;;6.10;;
24485;SDS011;13449;49.374;8.584;2022-07-23T09:52:31;7.75;;;5.60;;
24485;SDS011;13449;49.374;8.584;2022-07-23T09:55:01;7.20;;;5.40;;
24485;SDS011;13449;49.374;8.584;2022-07-23T09:57:31;9.63;;;6.05;;
24485;SDS011;13449;49.374;8.584;2022-07-23T10:00:00;9.80;;;5.95;;
24485;SDS011;13449;49.374;8.584;2022-07-23T10:02:31;12.63;;;6.25;;
24485;SDS011;13449;49.374;8.584;2022-07-23T10:05:01;7.05;;;6.00;;
24485;SDS011;13449;49.374;8.584;2022-07-23T10:07:31;8.68;;;5.95;;
24485;SDS011;13449;49.374;8.584;2022-07-23T10:10:00;13.18;;;5.78;;
24485;SDS011;13449;49.374;8.584;2022-07-23T10:12:27;9.73;;;6.70;;
24485;SDS011;13449;49.374;8.584;2022-07-23T10:15:09;7.57;;;5.78;;
24485;SDS011;13449;49.374;8.584;2022-07-23T10:17:39;10.13;;;6.13;;
24485;SDS011;13449;49.374;8.584;2022-07-23T10:20:05;8.70;;;5.95;;
24485;SDS011;13449;49.374;8.584;2022-07-23T10:22:37;10.30;;;6.32;;
24485;SDS011;13449;49.374;8.584;2022-07-23T10:33:46;15.90;;;7.10;;
24485;SDS011;13449;49.374;8.584;2022-07-23T10:36:54;7.13;;;6.30;;
24485;SDS011;13449;49.374;8.584;2022-07-23T10:39:28;10.90;;;5.60;;
24485;SDS011;13449;49.374;8.584;2022-07-23T10:42:07;8.10;;;5.35;;
24485;SDS011;13449;49.374;8.584;2022-07-23T10:44:43;7.68;;;5.47;;
24485;SDS011;13449;49.374;8.584;2022-07-23T10:47:28;12.52;;;5.75;;
24485;SDS011;13449;49.374;8.584;2022-07-23T10:50:29;9.48;;;6.57;;
24485;SDS011;13449;49.374;8.584;2022-07-23T10:53:11;7.40;;;5.95;;
24485;SDS011;13449;49.374;8.584;2022-07-23T10:55:43;8.83;;;5.97;;
24485;SDS011;13449;49.374;8.584;2022-07-23T10:58:18;7.80;;;5.88;;
24485;SDS011;13449;49.374;8.584;2022-07-23T11:00:47;12.07;;;6.57;;
24485;SDS011;13449;49.374;8.584;2022-07-23T11:03:48;14.75;;;6.35;;
24485;SDS011;13449;49.374;8.584;2022-07-23T11:06:21;9.00;;;6.10;;
24485;SDS011;13449;49.374;8.584;2022-07-23T11:11:48;8.38;;;6.50;;
24485;SDS011;13449;49.374;8.584;2022-07-23T11:14:14;8.07;;;6.15;;
24485;SDS011;13449;49.374;8.584;2022-07-23T11:16:47;8.15;;;6.32;;
24485;SDS011;13449;49.374;8.584;2022-07-23T11:19:16;9.80;;;6.15;;
24485;SDS011;13449;49.374;8.584;2022-07-23T11:21:43;15.07;;;7.13;;
24485;SDS011;13449;49.374;8.584;2022-07-23T11:24:12;8.73;;;6.10;;
24485;SDS011;13449;49.374;8.584;2022-07-23T11:31:52;13.05;;;7.45;;
24485;SDS011;13449;49.374;8.584;2022-07-23T11:34:32;12.85;;;5.97;;
24485;SDS011;13449;49.374;8.584;2022-07-23T11:37:08;9.27;;;5.95;;
24485;SDS011;13449;49.374;8.584;2022-07-23T11:39:37;9.00;;;6.07;;
24485;SDS011;13449;49.374;8.584;2022-07-23T11:42:05;8.98;;;5.82;;
24485;SDS011;13449;49.374;8.584;2022-07-23T11:44:34;8.60;;;6.15;;
24485;SDS011;13449;49.374;8.584;2022-07-23T11:47:08;7.30;;;5.82;;
24485;SDS011;13449;49.374;8.584;2022-07-23T11:49:36;9.30;;;5.40;;
24485;SDS011;13449;49.374;8.584;2022-07-23T11:52:11;7.38;;;5.38;;
24485;SDS011;13449;49.374;8.584;2022-07-23T11:57:25;7.88;;;5.45;;
24485;SDS011;13449;49.374;8.584;2022-07-23T12:02:45;7.03;;;5.28;;
24485;SDS011;13449;49.374;8.584;2022-07-23T12:05:14;6.97;;;5.35;;
24485;SDS011;13449;49.374;8.584;2022-07-23T12:07:42;6.30;;;4.93;;
24485;SDS011;13449;49.374;8.584;2022-07-23T12:10:17;7.38;;;5.03;;
24485;SDS011;13449;49.374;8.584;2022-07-23T12:15:24;6.72;;;4.90;;
24485;SDS011;13449;49.374;8.584;2022-07-23T12:17:56;13.50;;;5.68;;
24485;SDS011;13449;49.374;8.584;2022-07-23T12:20:39;6.72;;;4.97;;
24485;SDS011;13449;49.374;8.584;2022-07-23T12:23:09;6.97;;;5.38;;
24485;SDS011;13449;49.374;8.584;2022-07-23T12:25:41;6.75;;;4.43;;
24485;SDS011;13449;49.374;8.584;2022-07-23T12:30:48;13.10;;;5.00;;
24485;SDS011;13449;49.374;8.584;2022-07-23T12:33:26;12.23;;;4.78;;
24485;SDS011;13449;49.374;8.584;2022-07-23T12:35:56;9.52;;;4.70;;
24485;SDS011;13449;49.374;8.584;2022-07-23T12:38:26;12.98;;;5.50;;
24485;SDS011;13449;49.374;8.584;2022-07-23T12:43:40;12.52;;;5.45;;
24485;SDS011;13449;49.374;8.584;2022-07-23T12:51:06;8.02;;;5.30;;
24485;SDS011;13449;49.374;8.584;2022-07-23T12:56:10;13.90;;;4.93;;
24485;SDS011;13449;49.374;8.584;2022-07-23T12:58:41;8.57;;;5.30;;
24485;SDS011;13449;49.374;8.584;2022-07-23T13:04:05;9.40;;;5.15;;
24485;SDS011;13449;49.374;8.584;2022-07-23T13:06:40;7.63;;;5.72;;
24485;SDS011;13449;49.374;8.584;2022-07-23T13:09:17;6.43;;;5.30;;
24485;SDS011;13449;49.374;8.584;2022-07-23T13:11:47;9.32;;;5.75;;
24485;SDS011;13449;49.374;8.584;2022-07-23T13:14:16;6.63;;;5.45;;
24485;SDS011;13449;49.374;8.584;2022-07-23T13:16:51;7.10;;;5.30;;
24485;SDS011;13449;49.374;8.584;2022-07-23T13:19:18;5.00;;;4.50;;
24485;SDS011;13449;49.374;8.584;2022-07-23T13:21:50;4.78;;;4.13;;
24485;SDS011;13449;49.374;8.584;2022-07-23T13:24:17;7.30;;;5.32;;
24485;SDS011;13449;49.374;8.584;2022-07-23T13:26:45;5.63;;;5.00;;
24485;SDS011;13449;49.374;8.584;2022-07-23T13:29:13;6.47;;;5.00;;
24485;SDS011;13449;49.374;8.584;2022-07-23T13:31:42;7.85;;;5.40;;
24485;SDS011;13449;49.374;8.584;2022-07-23T13:34:11;5.97;;;4.95;;
24485;SDS011;13449;49.374;8.584;2022-07-23T13:36:38;16.25;;;5.00;;
24485;SDS011;13449;49.374;8.584;2022-07-23T13:39:04;6.65;;;5.22;;
24485;SDS011;13449;49.374;8.584;2022-07-23T13:41:37;7.13;;;5.30;;
24485;SDS011;13449;49.374;8.584;2022-07-23T13:44:04;6.55;;;4.97;;
24485;SDS011;13449;49.374;8.584;2022-07-23T13:46:34;5.70;;;5.15;;
24485;SDS011;13449;49.374;8.584;2022-07-23T13:49:06;6.82;;;5.47;;
24485;SDS011;13449;49.374;8.584;2022-07-23T13:51:35;7.15;;;5.30;;
24485;SDS011;13449;49.374;8.584;2022-07-23T13:54:03;8.38;;;5.03;;
24485;SDS011;13449;49.374;8.584;2022-07-23T13:56:34;8.88;;;4.85;;
24485;SDS011;13449;49.374;8.584;2022-07-23T13:59:01;9.55;;;4.55;;
24485;SDS011;13449;49.374;8.584;2022-07-23T14:01:28;14.48;;;5.35;;
24485;SDS011;13449;49.374;8.584;2022-07-23T14:04:14;6.65;;;5.05;;
24485;SDS011;13449;49.374;8.584;2022-07-23T14:06:41;5.82;;;5.22;;
24485;SDS011;13449;49.374;8.584;2022-07-23T14:09:07;9.15;;;5.40;;
24485;SDS011;13449;49.374;8.584;2022-07-23T14:11:34;8.57;;;5.55;;
24485;SDS011;13449;49.374;8.584;2022-07-23T14:14:00;6.03;;;5.10;;
24485;SDS011;13449;49.374;8.584;2022-07-23T14:16:27;6.35;;;5.35;;
24485;SDS011;13449;49.374;8.584;2022-07-23T14:18:53;6.15;;;4.88;;
24485;SDS011;13449;49.374;8.584;2022-07-23T14:21:20;7.22;;;5.30;;
24485;SDS011;13449;49.374;8.584;2022-07-23T14:23:50;10.02;;;5.72;;
24485;SDS011;13449;49.374;8.584;2022-07-23T14:26:20;5.75;;;5.10;;
24485;SDS011;13449;49.374;8.584;2022-07-23T14:28:48;7.43;;;5.80;;
24485;SDS011;13449;49.374;8.584;2022-07-23T14:31:16;8.50;;;6.13;;
24485;SDS011;13449;49.374;8.584;2022-07-23T14:33:46;7.88;;;6.05;;
24485;SDS011;13449;49.374;8.584;2022-07-23T14:36:15;5.15;;;4.63;;
24485;SDS011;13449;49.374;8.584;2022-07-23T14:38:42;6.78;;;4.65;;
24485;SDS011;13449;49.374;8.584;2022-07-23T14:41:09;9.20;;;4.93;;
24485;SDS011;13449;49.374;8.584;2022-07-23T14:43:37;9.63;;;5.25;;
24485;SDS011;13449;49.374;8.584;2022-07-23T14:46:04;10.77;;;5.47;;
24485;SDS011;13449;49.374;8.584;2022-07-23T14:48:33;6.53;;;5.30;;
24485;SDS011;13449;49.374;8.584;2022-07-23T14:51:03;11.48;;;4.47;;
24485;SDS011;13449;49.374;8.584;2022-07-23T14:53:29;5.93;;;4.78;;
24485;SDS011;13449;49.374;8.584;2022-07-23T14:55:57;7.45;;;4.70;;
24485;SDS011;13449;49.374;8.584;2022-07-23T14:58:23;5.93;;;5.32;;
24485;SDS011;13449;49.374;8.584;2022-07-23T15:00:50;5.65;;;4.88;;
24485;SDS011;13449;49.374;8.584;2022-07-23T15:03:17;8.02;;;5.82;;
24485;SDS011;13449;49.374;8.584;2022-07-23T15:05:46;6.22;;;4.90;;
24485;SDS011;13449;49.374;8.584;2022-07-23T15:08:13;5.25;;;4.75;;
24485;SDS011;13449;49.374;8.584;2022-07-23T15:10:39;9.77;;;4.97;;
24485;SDS011;13449;49.374;8.584;2022-07-23T15:13:06;7.60;;;4.45;;
24485;SDS011;13449;49.374;8.584;2022-07-23T15:15:33;6.25;;;5.05;;
24485;SDS011;13449;49.374;8.584;2022-07-23T15:18:00;7.35;;;5.32;;
24485;SDS011;13449;49.374;8.584;2022-07-23T15:23:06;6.65;;;5.30;;
24485;SDS011;13449;49.374;8.584;2022-07-23T15:25:33;7.50;;;5.47;;
24485;SDS011;13449;49.374;8.584;2022-07-23T15:28:01;5.60;;;4.82;;
24485;SDS011;13449;49.374;8.584;2022-07-23T15:30:28;7.53;;;4.80;;
24485;SDS011;13449;49.374;8.584;2022-07-23T15:32:55;6.82;;;5.20;;
24485;SDS011;13449;49.374;8.584;2022-07-23T15:35:24;7.78;;;4.75;;
24485;SDS011;13449;49.374;8.584;2022-07-23T15:37:50;5.35;;;4.85;;
24485;SDS011;13449;49.374;8.584;2022-07-23T15:40:17;8.65;;;5.15;;
24485;SDS011;13449;49.374;8.584;2022-07-23T15:42:44;6.47;;;4.97;;
24485;SDS011;13449;49.374;8.584;2022-07-23T15:45:13;5.60;;;4.57;;
24485;SDS011;13449;49.374;8.584;2022-07-23T15:47:43;6.95;;;5.25;;
24485;SDS011;13449;49.374;8.584;2022-07-23T15:50:10;7.22;;;4.95;;
24485;SDS011;13449;49.374;8.584;2022-07-23T15:52:41;7.72;;;5.10;;
24485;SDS011;13449;49.374;8.584;2022-07-23T15:55:08;12.93;;;5.05;;